This is the latest recevied weather packets stored in our database for station/object E22ZMG-1. If no packets are shown the sender has not sent any weather packets the latest 10 day(s).
| Time | Temp. | Humidity | Pressure | Rain* | Wind** | Luminosity | Snow |
|---|---|---|---|---|---|---|---|
| 1778118940 | 35.56° C | 49% | 975 hPa | - | - | 0 W/m² | - |
| 1778118315 | 35° C | 50% | 975 hPa | - | - | 0 W/m² | - |
| 1778117689 | 35° C | 51% | 975 hPa | - | - | 0 W/m² | - |
| 1778117063 | 33.89° C | 54% | 975 hPa | - | - | 0 W/m² | - |
| 1778116437 | 32.22° C | 58% | 975 hPa | - | - | 0 W/m² | - |
| 1778115811 | 31.67° C | 60% | 975 hPa | - | - | 0 W/m² | - |
| 1778115186 | 32.78° C | 59% | 975 hPa | - | - | 0 W/m² | - |
| 1778114561 | 32.22° C | 60% | 975 hPa | - | - | 0 W/m² | - |
| 1778113935 | 31.67° C | 62% | 975 hPa | - | - | 0 W/m² | - |
| 1778113309 | 30.56° C | 65% | 975 hPa | - | - | 0 W/m² | - |
| 1778112852 | 31.11° C | 62% | 975 hPa | - | - | 0 W/m² | - |
| 1778112227 | 31.11° C | 63% | 975 hPa | - | - | 0 W/m² | - |
| 1778111602 | 31.11° C | 64% | 975 hPa | - | - | 0 W/m² | - |
| 1778110975 | 31.11° C | 64% | 975 hPa | - | - | 0 W/m² | - |
| 1778109979 | 31.11° C | 64% | 975 hPa | - | - | 0 W/m² | - |
| 1778108764 | 32.22° C | 60% | 974 hPa | - | - | 0 W/m² | - |
| 1778108138 | 32.22° C | 60% | 974 hPa | - | - | 0 W/m² | - |
| 1778107512 | 32.22° C | 59% | 974 hPa | - | - | 0 W/m² | - |
| 1778106887 | 32.22° C | 60% | 974 hPa | - | - | 0 W/m² | - |
| 1778106262 | 32.22° C | 60% | 974 hPa | - | - | 0 W/m² | - |
| 1778105636 | 32.22° C | 60% | 974 hPa | - | - | 0 W/m² | - |
| 1778105011 | 31.67° C | 60% | 974 hPa | - | - | 0 W/m² | - |
| 1778104387 | 31.67° C | 61% | 974 hPa | - | - | 0 W/m² | - |
| 1778103762 | 31.67° C | 61% | 974 hPa | - | - | 0 W/m² | - |
| 1778103137 | 32.78° C | 59% | 974 hPa | - | - | 0 W/m² | - |
* Rain since midnight (hover to see other rain measurements)
** Current wind speed in m/s (hover to see current wind gust speed)